createdAt,value
2018-12-29T00:01:33.390Z,23.90
2018-12-29T00:04:02.927Z,23.90
2018-12-29T00:06:32.741Z,23.86
2018-12-29T00:09:02.225Z,23.97
2018-12-29T00:11:31.839Z,24.20
2018-12-29T00:14:01.356Z,24.42
2018-12-29T00:16:30.931Z,24.52
2018-12-29T00:19:00.434Z,24.57
2018-12-29T00:21:29.998Z,24.60
2018-12-29T00:23:59.477Z,24.62
2018-12-29T00:26:29.206Z,24.62
2018-12-29T00:28:58.767Z,24.59
2018-12-29T00:31:28.293Z,24.59
2018-12-29T00:33:57.706Z,24.55
2018-12-29T00:36:27.333Z,24.53
2018-12-29T00:38:56.764Z,24.53
2018-12-29T00:41:26.335Z,24.52
2018-12-29T00:43:55.835Z,24.49
2018-12-29T00:46:25.454Z,24.46
2018-12-29T00:48:55.105Z,24.43
2018-12-29T00:51:24.755Z,24.41
2018-12-29T00:53:54.435Z,24.39
2018-12-29T00:56:23.846Z,24.37
2018-12-29T00:58:53.581Z,24.34
2018-12-29T01:01:23.134Z,24.34
2018-12-29T01:03:52.738Z,24.31
2018-12-29T01:06:22.592Z,24.28
2018-12-29T01:08:52.446Z,24.29
2018-12-29T01:11:21.938Z,24.27
2018-12-29T01:13:51.418Z,24.25
2018-12-29T01:16:21.129Z,24.22
2018-12-29T01:18:50.610Z,24.19
2018-12-29T01:21:20.378Z,24.17
2018-12-29T01:23:49.931Z,24.15
2018-12-29T01:26:19.624Z,24.13
2018-12-29T01:28:49.084Z,24.13
2018-12-29T01:31:18.699Z,24.11
2018-12-29T01:33:48.322Z,24.09
2018-12-29T01:36:17.802Z,24.08
2018-12-29T01:38:47.483Z,24.08
2018-12-29T01:41:17.144Z,24.08
2018-12-29T01:43:46.740Z,24.05
2018-12-29T01:46:16.341Z,24.04
2018-12-29T01:48:46.044Z,24.03
2018-12-29T01:51:16.016Z,24.02
2018-12-29T01:53:48.841Z,24.01
2018-12-29T01:56:18.372Z,23.99
2018-12-29T01:58:47.746Z,23.99
2018-12-29T02:01:17.332Z,24.00
2018-12-29T02:03:49.120Z,23.99
2018-12-29T02:06:18.623Z,23.96
2018-12-29T02:08:48.142Z,24.09
2018-12-29T02:11:17.752Z,24.23
2018-12-29T02:13:47.255Z,24.44
2018-12-29T02:16:16.889Z,24.58
2018-12-29T02:18:48.826Z,24.69
2018-12-29T02:21:18.334Z,24.84
2018-12-29T02:23:47.799Z,24.93
2018-12-29T02:26:17.394Z,25.08
2018-12-29T02:28:47.008Z,25.12
2018-12-29T02:31:16.712Z,25.19
2018-12-29T02:33:46.097Z,25.22
2018-12-29T02:36:15.623Z,25.28
2018-12-29T02:38:45.323Z,25.34
2018-12-29T02:41:14.756Z,25.45
2018-12-29T02:43:44.353Z,25.51
2018-12-29T02:46:13.865Z,25.54
2018-12-29T02:48:43.265Z,25.56
2018-12-29T02:51:12.901Z,25.56
2018-12-29T02:53:42.386Z,25.57
2018-12-29T02:56:11.928Z,25.61
2018-12-29T02:58:41.474Z,25.67
2018-12-29T03:01:11.112Z,25.69
2018-12-29T03:03:40.695Z,25.73
2018-12-29T03:06:10.336Z,25.71
2018-12-29T03:08:40.066Z,25.75
2018-12-29T03:11:09.431Z,25.78
2018-12-29T03:13:39.317Z,25.79
2018-12-29T03:16:08.866Z,25.88
2018-12-29T03:18:39.513Z,25.88
2018-12-29T03:21:09.070Z,25.90
2018-12-29T03:23:38.647Z,25.92
2018-12-29T03:26:08.187Z,25.93
2018-12-29T03:28:37.761Z,25.96
2018-12-29T03:31:07.734Z,25.97
2018-12-29T03:33:37.423Z,25.97
2018-12-29T03:36:06.962Z,25.99
2018-12-29T03:38:36.601Z,26.11
2018-12-29T03:41:07.962Z,26.06
2018-12-29T03:43:37.677Z,26.08
2018-12-29T03:46:08.296Z,26.12
2018-12-29T03:48:40.802Z,26.17
2018-12-29T03:51:10.452Z,26.17
2018-12-29T03:53:39.881Z,26.24
2018-12-29T03:56:09.379Z,26.34
2018-12-29T03:58:39.004Z,26.39
2018-12-29T04:01:08.615Z,26.39
2018-12-29T04:03:38.279Z,26.39
2018-12-29T04:06:07.734Z,26.43
2018-12-29T04:08:37.115Z,26.45
2018-12-29T04:11:06.568Z,26.43
2018-12-29T04:13:39.202Z,26.41
2018-12-29T04:16:08.839Z,26.47
2018-12-29T04:18:40.321Z,26.49
2018-12-29T04:21:09.598Z,26.50
2018-12-29T04:23:39.087Z,26.48
2018-12-29T04:26:09.207Z,26.46
2018-12-29T04:28:38.787Z,26.50
2018-12-29T04:31:08.476Z,26.51
2018-12-29T04:33:38.040Z,26.55
2018-12-29T04:36:07.806Z,26.56
2018-12-29T04:38:37.284Z,26.55
2018-12-29T04:41:06.788Z,26.55
2018-12-29T04:43:36.706Z,26.59
2018-12-29T04:46:06.429Z,26.56
2018-12-29T04:48:35.923Z,26.58
2018-12-29T04:51:05.640Z,26.52
2018-12-29T04:53:35.173Z,26.53
2018-12-29T04:56:04.665Z,26.56
2018-12-29T04:58:34.422Z,26.54
2018-12-29T05:08:31.056Z,26.53
2018-12-29T05:11:00.588Z,26.54
2018-12-29T05:13:30.006Z,26.50
2018-12-29T05:15:59.510Z,26.49
2018-12-29T05:18:28.918Z,26.46
2018-12-29T05:20:58.397Z,26.48
2018-12-29T05:23:27.987Z,26.47
2018-12-29T05:25:57.577Z,26.49
2018-12-29T05:28:27.059Z,26.49
2018-12-29T05:30:57.376Z,26.49
2018-12-29T05:33:26.847Z,26.49
2018-12-29T05:35:56.484Z,26.49
2018-12-29T05:38:26.032Z,26.54
2018-12-29T05:40:55.608Z,26.54
2018-12-29T05:43:25.044Z,26.53
2018-12-29T05:45:54.629Z,26.58
2018-12-29T05:48:29.190Z,26.57
2018-12-29T05:50:58.766Z,26.56
2018-12-29T05:53:28.161Z,26.57
2018-12-29T05:55:57.654Z,26.57
2018-12-29T05:58:27.673Z,26.60
2018-12-29T06:00:57.179Z,26.61
2018-12-29T06:03:26.773Z,26.61
2018-12-29T06:05:57.947Z,26.59
2018-12-29T06:08:27.444Z,26.62
2018-12-29T06:10:57.114Z,26.65
2018-12-29T06:13:26.673Z,26.67
2018-12-29T06:15:56.203Z,26.68
2018-12-29T06:18:25.726Z,26.65
2018-12-29T06:20:55.134Z,26.71
2018-12-29T06:23:24.637Z,26.69
2018-12-29T06:25:54.430Z,26.69
2018-12-29T06:28:23.926Z,26.71
2018-12-29T06:30:53.422Z,26.70
2018-12-29T06:33:22.864Z,26.73
2018-12-29T06:35:52.522Z,26.72
2018-12-29T06:38:22.044Z,26.74
2018-12-29T06:40:51.564Z,26.75
2018-12-29T06:43:21.241Z,26.76
2018-12-29T06:45:50.734Z,26.79
2018-12-29T06:48:20.377Z,26.81
2018-12-29T06:50:49.975Z,26.79
2018-12-29T06:53:19.378Z,26.79
2018-12-29T06:55:48.789Z,26.82
2018-12-29T06:58:18.291Z,26.85
2018-12-29T07:00:47.700Z,26.82
2018-12-29T07:03:17.045Z,26.83
2018-12-29T07:05:46.700Z,26.83
2018-12-29T07:08:16.307Z,26.89
2018-12-29T07:10:45.774Z,26.88
2018-12-29T07:13:15.515Z,26.89
2018-12-29T07:15:45.131Z,26.90
2018-12-29T07:18:14.751Z,26.89
2018-12-29T07:20:44.133Z,26.92
2018-12-29T07:23:13.647Z,26.94
2018-12-29T07:25:43.155Z,26.93
2018-12-29T07:28:12.668Z,26.87
2018-12-29T07:30:42.095Z,26.81
2018-12-29T07:33:11.690Z,26.78
2018-12-29T07:35:41.078Z,26.78
2018-12-29T07:38:10.513Z,26.75
2018-12-29T07:40:39.994Z,26.73
2018-12-29T07:43:09.895Z,26.79
2018-12-29T07:45:41.178Z,26.84
2018-12-29T07:48:10.675Z,26.87
2018-12-29T07:50:40.121Z,26.85
2018-12-29T07:53:09.799Z,26.81
2018-12-29T07:55:39.325Z,26.81
2018-12-29T07:58:08.788Z,26.84
2018-12-29T08:00:38.262Z,26.86
2018-12-29T08:03:07.950Z,26.82
2018-12-29T08:05:37.365Z,26.79
2018-12-29T08:08:07.106Z,26.81
2018-12-29T08:10:36.591Z,26.81
2018-12-29T08:13:06.045Z,26.85
2018-12-29T08:18:04.088Z,26.78
2018-12-29T08:23:01.896Z,26.81
2018-12-29T08:25:31.534Z,26.82
2018-12-29T08:28:01.215Z,26.80
2018-12-29T08:30:30.828Z,26.78
2018-12-29T08:33:00.348Z,26.75
2018-12-29T08:35:29.972Z,26.71
2018-12-29T08:37:59.386Z,26.70
2018-12-29T08:40:28.805Z,26.70
2018-12-29T08:42:58.430Z,26.67
2018-12-29T08:45:28.150Z,26.70
2018-12-29T08:47:57.855Z,26.68
2018-12-29T08:50:27.366Z,26.66
2018-12-29T08:52:56.784Z,26.68
2018-12-29T08:55:26.204Z,26.70
2018-12-29T08:57:55.706Z,26.73
2018-12-29T09:00:25.327Z,26.73
2018-12-29T09:02:54.848Z,26.73
2018-12-29T09:05:24.486Z,26.74
2018-12-29T09:07:54.082Z,26.74
2018-12-29T09:10:23.666Z,26.75
2018-12-29T09:12:53.355Z,26.72
2018-12-29T09:15:23.145Z,26.71
2018-12-29T09:17:52.677Z,26.68
2018-12-29T09:20:22.296Z,26.68
2018-12-29T09:22:51.859Z,26.67
2018-12-29T09:25:21.408Z,26.65
2018-12-29T09:27:51.071Z,26.65
2018-12-29T09:30:20.630Z,26.61
2018-12-29T09:32:50.379Z,26.58
2018-12-29T09:35:20.214Z,26.56
2018-12-29T09:37:49.654Z,26.54
2018-12-29T09:40:19.241Z,26.52
2018-12-29T09:42:48.887Z,26.49
2018-12-29T09:45:18.357Z,26.48
2018-12-29T09:47:48.267Z,26.50
2018-12-29T09:50:17.801Z,26.50
2018-12-29T09:52:47.462Z,26.46
2018-12-29T09:55:17.065Z,26.44
2018-12-29T09:57:46.782Z,26.43
2018-12-29T10:00:16.601Z,26.40
2018-12-29T10:02:46.278Z,26.45
2018-12-29T10:05:16.086Z,26.45
2018-12-29T10:07:45.772Z,26.44
2018-12-29T10:10:15.443Z,26.46
2018-12-29T10:12:44.974Z,26.43
2018-12-29T10:15:14.688Z,26.42
2018-12-29T10:17:44.350Z,26.42
2018-12-29T10:20:13.879Z,26.42
2018-12-29T10:22:44.429Z,26.44
2018-12-29T10:25:14.124Z,26.44
2018-12-29T10:27:43.910Z,26.44
2018-12-29T10:30:13.312Z,26.48
2018-12-29T10:32:42.983Z,26.47
2018-12-29T10:35:12.705Z,26.46
2018-12-29T10:37:42.246Z,26.44
2018-12-29T10:40:11.927Z,26.43
2018-12-29T10:42:41.522Z,26.46
2018-12-29T10:45:11.047Z,26.46
2018-12-29T10:47:40.721Z,26.45
2018-12-29T10:50:10.298Z,26.45
2018-12-29T10:52:39.749Z,26.46
2018-12-29T10:55:09.277Z,26.48
2018-12-29T10:57:38.811Z,26.48
2018-12-29T11:00:09.844Z,26.45
2018-12-29T11:02:39.628Z,26.44
2018-12-29T11:05:09.650Z,26.45
2018-12-29T11:07:39.042Z,26.46
2018-12-29T11:10:08.832Z,26.54
2018-12-29T11:12:38.234Z,26.73
2018-12-29T11:15:07.647Z,27.18
2018-12-29T11:17:42.126Z,27.56
2018-12-29T11:20:08.226Z,27.86
2018-12-29T11:22:37.633Z,28.20
2018-12-29T11:25:07.201Z,28.53
2018-12-29T11:27:36.663Z,28.83
2018-12-29T11:30:06.403Z,28.90
2018-12-29T11:32:35.920Z,29.05
2018-12-29T11:35:05.506Z,29.05
2018-12-29T11:37:34.909Z,29.05
2018-12-29T11:40:04.415Z,29.01
2018-12-29T11:42:33.823Z,29.05
2018-12-29T11:45:03.244Z,29.06
2018-12-29T11:47:32.732Z,29.12
2018-12-29T11:50:02.148Z,29.13
2018-12-29T11:52:31.528Z,29.14
2018-12-29T11:55:01.104Z,29.21
2018-12-29T11:57:30.573Z,29.17
2018-12-29T12:00:00.121Z,29.10
2018-12-29T12:02:29.918Z,29.02
2018-12-29T12:04:59.529Z,28.97
2018-12-29T12:07:29.023Z,28.90
2018-12-29T12:09:58.592Z,28.85
2018-12-29T12:12:28.047Z,28.79
2018-12-29T12:14:57.619Z,28.77
2018-12-29T12:17:27.550Z,28.73
2018-12-29T12:19:57.410Z,28.68
2018-12-29T12:22:27.097Z,28.66
2018-12-29T12:24:56.727Z,28.64
2018-12-29T12:27:26.277Z,28.61
2018-12-29T12:29:56.512Z,28.65
2018-12-29T12:32:26.314Z,28.61
2018-12-29T12:34:56.141Z,28.60
2018-12-29T12:37:25.758Z,28.57
2018-12-29T12:39:55.672Z,28.56
2018-12-29T12:42:25.245Z,28.53
2018-12-29T12:44:54.671Z,28.52
2018-12-29T12:47:24.107Z,28.50
2018-12-29T12:49:53.688Z,28.49
2018-12-29T12:52:23.745Z,28.46
2018-12-29T12:54:53.270Z,28.47
2018-12-29T12:57:22.997Z,28.43
2018-12-29T12:59:53.150Z,28.41
2018-12-29T13:02:22.915Z,28.39
2018-12-29T13:04:52.459Z,28.41
2018-12-29T13:07:22.005Z,28.36
2018-12-29T13:09:51.632Z,28.30
2018-12-29T13:12:21.361Z,28.32
2018-12-29T13:14:51.126Z,28.31
2018-12-29T13:17:20.587Z,28.28
2018-12-29T13:19:50.069Z,28.28
2018-12-29T13:22:19.474Z,28.26
2018-12-29T13:24:48.980Z,28.24
2018-12-29T13:27:18.459Z,28.24
2018-12-29T13:29:49.211Z,28.30
2018-12-29T13:32:18.737Z,28.30
2018-12-29T13:34:48.366Z,28.29
2018-12-29T13:37:18.029Z,28.29
2018-12-29T13:39:47.573Z,28.36
2018-12-29T13:42:17.044Z,28.34
2018-12-29T13:44:46.660Z,28.34
2018-12-29T13:47:16.117Z,28.36
2018-12-29T13:49:45.752Z,28.41
2018-12-29T13:52:15.139Z,28.37
2018-12-29T13:54:44.521Z,28.33
2018-12-29T13:57:14.309Z,28.31
2018-12-29T13:59:44.046Z,28.37
2018-12-29T14:02:13.587Z,28.33
2018-12-29T14:04:43.108Z,28.27
2018-12-29T14:07:12.527Z,28.29
2018-12-29T14:09:42.119Z,28.34
2018-12-29T14:12:11.725Z,28.26
2018-12-29T14:14:41.233Z,28.26
2018-12-29T14:17:10.739Z,28.25
2018-12-29T14:19:40.233Z,28.16
2018-12-29T14:22:09.616Z,28.19
2018-12-29T14:24:39.061Z,28.21
2018-12-29T14:27:08.487Z,28.31
2018-12-29T14:29:38.098Z,28.44
2018-12-29T14:32:09.261Z,28.54
2018-12-29T14:34:39.160Z,29.04
2018-12-29T14:37:08.628Z,30.01
2018-12-29T14:39:38.233Z,31.24
2018-12-29T14:42:07.717Z,32.61
2018-12-29T14:44:37.115Z,33.20
2018-12-29T14:47:08.835Z,33.54
2018-12-29T14:49:38.461Z,33.81
2018-12-29T14:52:07.891Z,33.92
2018-12-29T14:54:37.763Z,34.06
2018-12-29T14:57:07.874Z,34.31
2018-12-29T14:59:37.613Z,34.46
2018-12-29T15:02:06.998Z,34.57
2018-12-29T15:04:36.465Z,34.68
2018-12-29T15:07:05.857Z,34.75
2018-12-29T15:09:35.578Z,34.85
2018-12-29T15:12:05.242Z,34.96
2018-12-29T15:14:34.680Z,35.01
2018-12-29T15:17:04.330Z,35.18
2018-12-29T15:19:34.191Z,35.52
2018-12-29T15:22:03.625Z,35.70
2018-12-29T15:24:33.743Z,35.88
2018-12-29T15:27:03.436Z,36.13
2018-12-29T15:29:33.265Z,36.29
2018-12-29T15:32:03.716Z,36.45
2018-12-29T15:34:33.423Z,36.57
2018-12-29T15:37:03.468Z,36.63
2018-12-29T15:39:33.248Z,36.76
2018-12-29T15:42:02.867Z,36.82
2018-12-29T15:44:32.498Z,36.92
2018-12-29T15:47:02.290Z,36.97
2018-12-29T15:49:32.050Z,37.00
2018-12-29T15:52:01.646Z,37.04
2018-12-29T15:54:31.801Z,37.06
2018-12-29T15:57:01.716Z,37.06
2018-12-29T15:59:31.512Z,37.06
2018-12-29T16:02:01.152Z,37.05
2018-12-29T16:04:30.609Z,37.03
2018-12-29T16:07:00.123Z,37.01
2018-12-29T16:09:30.077Z,36.98
2018-12-29T16:11:59.946Z,36.98
2018-12-29T16:14:35.359Z,36.96
2018-12-29T16:17:00.529Z,36.92
2018-12-29T16:19:30.121Z,36.87
2018-12-29T16:21:59.733Z,36.85
2018-12-29T16:24:29.093Z,36.81
2018-12-29T16:26:58.766Z,36.75
2018-12-29T16:29:28.307Z,36.71
2018-12-29T16:31:58.191Z,36.68
2018-12-29T16:34:28.099Z,36.62
2018-12-29T16:36:57.720Z,36.56
2018-12-29T16:39:27.677Z,36.51
2018-12-29T16:41:57.553Z,36.45
2018-12-29T16:44:27.053Z,36.37
2018-12-29T16:46:56.768Z,36.30
2018-12-29T16:49:26.544Z,36.25
2018-12-29T16:51:56.236Z,36.16
2018-12-29T16:54:25.992Z,36.08
2018-12-29T16:56:55.526Z,35.98
2018-12-29T16:59:25.547Z,35.90
2018-12-29T17:01:57.956Z,35.80
2018-12-29T17:04:27.863Z,35.69
2018-12-29T17:06:57.571Z,35.61
2018-12-29T17:09:27.418Z,35.51
2018-12-29T17:11:56.911Z,35.41
2018-12-29T17:14:26.474Z,35.33
2018-12-29T17:16:55.912Z,35.23
2018-12-29T17:19:25.548Z,35.15
2018-12-29T17:21:55.322Z,35.06
2018-12-29T17:24:24.897Z,34.94
2018-12-29T17:26:56.104Z,34.86
2018-12-29T17:29:25.687Z,34.77
2018-12-29T17:31:55.373Z,34.67
2018-12-29T17:34:24.853Z,34.60
2018-12-29T17:36:54.622Z,34.48
2018-12-29T17:39:24.140Z,34.40
2018-12-29T17:41:53.682Z,34.30
2018-12-29T17:44:23.166Z,34.22
2018-12-29T17:46:52.860Z,34.16
2018-12-29T17:49:23.257Z,34.05
2018-12-29T17:51:54.840Z,33.97
2018-12-29T17:54:24.390Z,33.88
2018-12-29T17:56:53.989Z,33.79
2018-12-29T17:59:23.791Z,33.72
2018-12-29T18:01:55.882Z,33.63
2018-12-29T18:04:25.606Z,33.54
2018-12-29T18:06:55.454Z,33.46
2018-12-29T18:09:25.107Z,33.38
2018-12-29T18:11:54.927Z,33.30
2018-12-29T18:14:24.615Z,33.19
2018-12-29T18:16:54.479Z,33.11
2018-12-29T18:19:30.563Z,33.02
2018-12-29T18:21:55.778Z,32.94
2018-12-29T18:24:25.439Z,32.85
2018-12-29T18:26:55.148Z,32.79
2018-12-29T18:29:24.662Z,32.69
2018-12-29T18:31:54.609Z,32.60
2018-12-29T18:34:24.085Z,32.51
2018-12-29T18:36:53.637Z,32.45
2018-12-29T18:39:23.214Z,32.36
2018-12-29T18:41:52.963Z,32.29
2018-12-29T18:44:22.667Z,32.19
2018-12-29T18:46:52.532Z,32.16
2018-12-29T18:49:22.012Z,32.05
2018-12-29T18:51:51.615Z,31.98
2018-12-29T18:54:21.241Z,31.92
2018-12-29T18:56:50.848Z,31.82
2018-12-29T18:59:20.685Z,31.79
2018-12-29T19:01:57.361Z,31.73
2018-12-29T19:04:21.942Z,31.65
2018-12-29T19:06:51.806Z,31.58
2018-12-29T19:11:49.691Z,31.43
2018-12-29T19:14:19.675Z,31.36
2018-12-29T19:16:49.248Z,31.32
2018-12-29T19:19:19.227Z,31.25
2018-12-29T19:21:48.948Z,31.21
2018-12-29T19:24:18.565Z,31.13
2018-12-29T19:26:48.211Z,31.05
2018-12-29T19:29:17.911Z,30.98
2018-12-29T19:31:47.652Z,30.92
2018-12-29T19:34:17.681Z,30.84
2018-12-29T19:36:48.215Z,30.79
2018-12-29T19:39:17.989Z,30.72
2018-12-29T19:41:54.751Z,30.67
2018-12-29T19:44:19.006Z,30.60
2018-12-29T19:46:50.306Z,30.56
2018-12-29T19:49:20.002Z,30.50
2018-12-29T19:51:49.519Z,30.43
2018-12-29T19:54:19.387Z,30.36
2018-12-29T19:56:48.976Z,30.30
2018-12-29T19:59:18.974Z,30.26
2018-12-29T20:01:48.599Z,30.20
2018-12-29T20:04:18.590Z,30.12
2018-12-29T20:06:48.344Z,30.07
2018-12-29T20:09:17.884Z,30.01
2018-12-29T20:11:47.470Z,29.94
2018-12-29T20:14:17.448Z,29.91
2018-12-29T20:16:47.278Z,29.86
2018-12-29T20:19:16.925Z,29.82
2018-12-29T20:21:46.593Z,29.74
2018-12-29T20:24:16.458Z,29.67
2018-12-29T20:26:46.261Z,29.62
2018-12-29T20:29:15.893Z,29.58
2018-12-29T20:31:45.946Z,29.52
2018-12-29T20:34:15.614Z,29.47
2018-12-29T20:36:45.386Z,29.43
2018-12-29T20:39:15.017Z,29.38
2018-12-29T20:41:44.759Z,29.33
2018-12-29T20:44:14.596Z,29.31
2018-12-29T20:46:44.216Z,29.27
2018-12-29T20:49:13.649Z,29.24
2018-12-29T20:51:43.229Z,29.18
2018-12-29T20:54:12.752Z,29.13
2018-12-29T20:56:42.328Z,29.06
2018-12-29T20:59:12.000Z,29.03
2018-12-29T21:01:41.614Z,28.99
2018-12-29T21:04:11.131Z,28.94
2018-12-29T21:06:40.791Z,28.86
2018-12-29T21:09:10.544Z,28.83
2018-12-29T21:11:40.030Z,28.77
2018-12-29T21:14:09.768Z,28.74
2018-12-29T21:16:41.746Z,28.70
2018-12-29T21:19:11.221Z,28.63
2018-12-29T21:21:40.972Z,28.60
2018-12-29T21:24:12.330Z,28.54
2018-12-29T21:26:42.407Z,28.49
2018-12-29T21:31:41.665Z,28.44
2018-12-29T21:34:18.310Z,28.36
2018-12-29T21:36:47.893Z,28.32
2018-12-29T21:39:19.236Z,28.25
2018-12-29T21:41:51.406Z,28.20
2018-12-29T21:44:21.061Z,28.16
2018-12-29T21:46:50.656Z,28.10
2018-12-29T21:49:20.118Z,28.06
2018-12-29T21:51:51.947Z,28.02
2018-12-29T21:56:50.040Z,27.96
2018-12-29T21:59:19.496Z,27.93
2018-12-29T22:01:49.113Z,27.90
2018-12-29T22:04:18.991Z,27.84
2018-12-29T22:06:48.512Z,27.78
2018-12-29T22:09:18.156Z,27.77
2018-12-29T22:11:47.538Z,27.73
2018-12-29T22:14:17.059Z,27.67
2018-12-29T22:16:46.774Z,27.66
2018-12-29T22:19:16.274Z,27.59
2018-12-29T22:21:45.779Z,27.58
2018-12-29T22:24:16.095Z,27.54
2018-12-29T22:26:45.660Z,27.50
2018-12-29T22:29:15.579Z,27.48
2018-12-29T22:31:45.336Z,27.45
2018-12-29T22:34:14.918Z,27.41
2018-12-29T22:36:44.641Z,27.38
2018-12-29T22:39:14.435Z,27.35
2018-12-29T22:41:44.286Z,27.32
2018-12-29T22:44:13.878Z,27.30
2018-12-29T22:46:43.482Z,27.29
2018-12-29T22:49:13.170Z,27.24
2018-12-29T22:51:42.797Z,27.22
2018-12-29T22:54:12.840Z,27.20
2018-12-29T22:56:42.450Z,27.17
2018-12-29T22:59:12.010Z,27.10
2018-12-29T23:01:41.626Z,27.11
2018-12-29T23:04:11.178Z,27.07
2018-12-29T23:06:40.704Z,27.03
2018-12-29T23:09:10.540Z,27.02
2018-12-29T23:11:40.202Z,26.99
2018-12-29T23:14:11.981Z,26.98
2018-12-29T23:16:41.549Z,26.96
2018-12-29T23:19:11.050Z,26.94
2018-12-29T23:21:40.602Z,26.93
2018-12-29T23:24:10.490Z,26.90
2018-12-29T23:26:40.133Z,26.90
2018-12-29T23:29:10.178Z,26.87
2018-12-29T23:31:40.035Z,26.86
2018-12-29T23:34:09.750Z,26.84
2018-12-29T23:36:39.573Z,26.82
2018-12-29T23:39:09.131Z,26.79
2018-12-29T23:41:38.727Z,26.77
2018-12-29T23:44:08.360Z,26.75
2018-12-29T23:46:37.919Z,26.73
2018-12-29T23:49:07.608Z,26.73
2018-12-29T23:51:37.116Z,26.70
2018-12-29T23:54:07.025Z,26.68
2018-12-29T23:56:37.017Z,26.64
2018-12-29T23:59:09.131Z,26.63
